Airfield :
LOGIN :

Register | Disclaimer

   EN    FR    IT 

 










Legend :    VFR   Marginal VFR   IFR   Intensive IFR   Very Intensive IFR
Visi :
Ceiling :
>= 8 km
>= 3000ft
5 to 8 km
1000 to 3000 ft
1500m to 5 km
500 to 1000 ft
800 to 1500m
200 to 500 ft
< 800m
< 200 ft
Symbols :   Thunderstorms  Fog  Heavy snow  Heavy precipitations  Wind > 20 kt
SIGMETs :     Misc.  Thunderstorms  Icing  Turbulence  Mountain Waves  Volcanic Ashes






- Airport Elevation : 203 ft
- IATA code : XMJ


LFBM - Mont-De-Marsan

CURRENT METAR :
  • 170430Z AUTO 23005KT 200V260 9999 FEW036 OVC064 12/09 Q1017 NOSIG

EXPIRED METARs :
  • 170400Z AUTO 21006KT 180V240 9999 FEW025 SCT045 BKN064 11/09 Q1017 TEMPO BKN005
  • 170330Z AUTO 23005KT 190V250 9999 FEW021 OVC250 12/10 Q1018 TEMPO BKN005
  • 170300Z AUTO 24006KT 190V270 9999 SCT023 BKN032 BKN047 12/10 Q1017 TEMPO BKN005
  • 170230Z AUTO 24008KT 9999 SCT025/// BKN031/// BKN088/// ///TCU 12/10 Q1017 TEMPO BKN005
  • 170200Z AUTO 23005KT 9999 FEW029/// SCT046/// BKN062/// ///TCU 12/10 Q1017 TEMPO BKN005
  • 170130Z AUTO 23006KT 190V260 9999 FEW028/// BKN056/// ///TCU 12/10 Q1017 TEMPO BKN005

TAF TAF LFBM
Valid from the 17 at 03:00 until the 18 at 03:00 UTC


170200Z 1703/1803 26005KT 9999 SCT010 SCT050
TEMPO 1703/1705 BKN005
BECMG 1709/1711 SCT030
BECMG 1721/1723 3000 BR
TEMPO 1723/1803 0500 FG VV///



MET'MAP, your aeronautical weather chart ! - Copyright ORBIFLY December 2007 - Disclaimer

ORBIFLY MET'MAP TEAM :

Programming & Development : Alexandra Zaïnal
Concept & original design : Baudouin d'Aumeries
Assistance for programming : Marc-Olivier Méhu
Technical & hardware support : Manuel Goepfert

Contact : metmap@orbifly.com




SOURCES & CREDITS :

   NOAA